»·PEaware :: WAT169 KSNA-KLAS

WAT169 :: KSNA-KLAS

FLIGHT INFORMATION

Flight Status: Arrived
Operator: Unknown
More flights by this operator :: More flights under this callsign
Pilot: Marty P. (27464)
Aircraft: BOMBARDIER BD-100 CHALLENGER 300
(CL30)
More flights by this aircraft type
Origin: KSNA John Wayne-Orange Co
United States
Destination: KLAS McCarran Intl
United States
More flights between these airports :: More routes between these airports
Route: FINZZ2 MISEN KEPEC6
File this flight plan on PilotEdge
Remarks:
Altitude:
(Current/Filed)
29,000ft
Speed:
(Current/Filed)
470kts
Departed: 21-Mar-20 08:02 PM
Arrived: 21-Mar-20 08:54 PM
Distance/Time
Traveled:
197nm/0:51
Distance/Time
To Go:
Arrived

Flight Plot

Page will automatically refresh every two minutes.

Flight plan parsing failed; only flown route is shown


Map Options




Map Legend


Flown Route
Filed Route
Departure Airport
Arrival Airport
Navaid (VOR, NDB)
Fix

Horizontal Profiles

Position Reports

Time Latitude Longitude Heading Altitude Ground
Speed
21-Mar-20 19:20 33.677147 -117.863639 117 62ft 0kts
21-Mar-20 19:21 33.677147 -117.863639 117 62ft 0kts
21-Mar-20 19:22 33.677147 -117.863639 117 62ft 0kts
21-Mar-20 19:23 33.677147 -117.863639 117 62ft 0kts
21-Mar-20 19:24 33.677147 -117.863639 117 62ft 0kts
21-Mar-20 19:25 33.677147 -117.863639 117 62ft 0kts
21-Mar-20 19:26 33.677147 -117.863639 117 62ft 0kts
21-Mar-20 19:27 33.677147 -117.863639 117 62ft 0kts
21-Mar-20 19:28 33.677147 -117.863639 117 62ft 0kts
21-Mar-20 19:29 33.677147 -117.863639 117 62ft 0kts
21-Mar-20 19:30 33.677147 -117.863639 117 62ft 0kts
21-Mar-20 19:31 33.677147 -117.863639 117 62ft 0kts
21-Mar-20 19:32 33.677147 -117.863639 117 62ft 0kts
21-Mar-20 19:33 33.677147 -117.863639 117 62ft 0kts
21-Mar-20 19:34 33.677147 -117.863639 117 62ft 0kts
21-Mar-20 19:35 33.677147 -117.863639 117 62ft 0kts
21-Mar-20 19:36 33.677147 -117.863639 117 62ft 0kts
21-Mar-20 19:37 33.677147 -117.863639 117 62ft 0kts
21-Mar-20 19:38 33.677147 -117.863639 117 62ft 0kts
21-Mar-20 19:39 33.677147 -117.863639 117 62ft 0kts
21-Mar-20 19:40 33.677147 -117.863639 117 62ft 0kts
21-Mar-20 19:41 33.677147 -117.863639 117 62ft 0kts
21-Mar-20 19:42 33.677147 -117.863639 117 62ft 0kts
21-Mar-20 19:43 33.677147 -117.863639 117 62ft 0kts
21-Mar-20 19:44 33.677147 -117.863639 117 62ft 0kts
21-Mar-20 19:45 33.677147 -117.863639 117 62ft 0kts
21-Mar-20 19:46 33.677147 -117.863639 117 62ft 0kts
21-Mar-20 19:47 33.677147 -117.863639 117 62ft 0kts
21-Mar-20 19:48 33.677147 -117.863639 117 62ft 0kts
21-Mar-20 19:49 33.677147 -117.863639 117 62ft 0kts
21-Mar-20 19:50 33.677145 -117.863635 117 63ft 0kts
21-Mar-20 19:51 33.677359 -117.864118 118 63ft 2kts
21-Mar-20 19:52 33.677350 -117.864424 26 63ft 0kts
21-Mar-20 19:53 33.677350 -117.864424 26 62ft 0kts
21-Mar-20 19:54 33.677651 -117.864245 28 62ft 7kts
21-Mar-20 19:55 33.680659 -117.863093 299 62ft 0kts
21-Mar-20 19:56 33.680659 -117.863093 299 62ft 0kts
21-Mar-20 19:57 33.680972 -117.863791 298 62ft 7kts
21-Mar-20 19:58 33.681173 -117.864243 295 63ft 0kts
21-Mar-20 19:59 33.681173 -117.864243 295 63ft 0kts
21-Mar-20 20:00 33.681173 -117.864243 295 63ft 0kts
21-Mar-20 20:01 33.679528 -117.866410 207 63ft 69kts
21-Mar-20 20:02 33.633297 -117.888919 187 1546ft 202kts
21-Mar-20 20:03 33.576254 -117.899395 203 4908ft 252kts
21-Mar-20 20:04 33.520332 -117.957273 222 7974ft 267kts
21-Mar-20 20:05 33.506130 -118.032147 308 8000ft 285kts
21-Mar-20 20:06 33.560840 -118.104744 308 12115ft 305kts
21-Mar-20 20:07 33.653028 -118.097575 29 14769ft 403kts
21-Mar-20 20:08 33.751344 -118.035559 21 17000ft 418kts
21-Mar-20 20:09 33.852010 -117.976692 21 17008ft 411kts
21-Mar-20 20:10 33.948866 -117.905881 33 17010ft 420kts
21-Mar-20 20:11 34.043889 -117.819105 32 19201ft 440kts
21-Mar-20 20:12 34.131913 -117.714490 46 21663ft 473kts
21-Mar-20 20:13 34.215659 -117.590369 45 24263ft 484kts
21-Mar-20 20:14 34.298723 -117.466449 43 27411ft 473kts
21-Mar-20 20:15 34.379186 -117.346304 43 29170ft 494kts
21-Mar-20 20:16 34.470743 -117.209013 44 29151ft 550kts
21-Mar-20 20:17 34.570934 -117.059674 43 29145ft 581kts
21-Mar-20 20:18 34.672759 -116.911054 43 29130ft 562kts
21-Mar-20 20:19 34.771893 -116.765889 42 29131ft 550kts
21-Mar-20 20:20 34.871943 -116.628014 29 29057ft 518kts
21-Mar-20 20:21 34.978943 -116.524002 28 27091ft 464kts
21-Mar-20 20:22 35.074739 -116.430872 28 25521ft 417kts
21-Mar-20 20:23 35.154479 -116.337948 37 23872ft 395kts
21-Mar-20 20:24 35.231187 -116.242667 39 21634ft 389kts
21-Mar-20 20:25 35.306248 -116.148457 40 19416ft 382kts
21-Mar-20 20:26 35.378669 -116.057185 42 17186ft 360kts
21-Mar-20 20:27 35.446039 -115.972037 43 14966ft 335kts
21-Mar-20 20:28 35.508849 -115.892454 44 13009ft 304kts
21-Mar-20 20:29 35.567336 -115.818118 44 13005ft 304kts
21-Mar-20 20:30 35.627278 -115.741815 44 13009ft 312kts
21-Mar-20 20:31 35.688771 -115.663373 44 13010ft 318kts
21-Mar-20 20:32 35.751501 -115.585954 26 12998ft 315kts
21-Mar-20 20:33 35.836669 -115.571596 359 13011ft 308kts
21-Mar-20 20:35 35.922858 -115.566402 358 13003ft 309kts
21-Mar-20 20:36 35.987905 -115.509706 67 11837ft 311kts
21-Mar-20 20:37 36.018316 -115.415744 68 10986ft 274kts
21-Mar-20 20:38 36.026965 -115.322262 95 10465ft 282kts
21-Mar-20 20:39 36.020494 -115.228412 95 8994ft 256kts
21-Mar-20 20:40 36.014712 -115.144651 95 7994ft 222kts
21-Mar-20 20:41 36.016269 -115.079507 43 7716ft 192kts
21-Mar-20 20:42 36.070644 -115.049542 20 6022ft 223kts
21-Mar-20 20:43 36.119059 -115.014799 31 5606ft 198kts
21-Mar-20 20:44 36.160328 -114.983731 21 5490ft 147kts
21-Mar-20 20:45 36.200051 -114.970469 328 5536ft 151kts
21-Mar-20 20:46 36.231086 -115.022074 266 3151ft 213kts
21-Mar-20 20:47 36.194226 -115.050646 221 2973ft 143kts
21-Mar-20 20:48 36.173852 -115.086738 233 2756ft 122kts
21-Mar-20 20:49 36.182469 -115.131328 343 2976ft 180kts
21-Mar-20 20:50 36.191987 -115.096683 169 3000ft 155kts
21-Mar-20 20:50 36.163385 -115.116571 201 3164ft 135kts
21-Mar-20 20:52 36.124679 -115.138988 202 2699ft 134kts
21-Mar-20 20:53 36.091963 -115.157380 202 2188ft 111kts
21-Mar-20 20:53 36.083171 -115.161235 174 2188ft 6kts
21-Mar-20 20:54 36.083061 -115.161222 174 2188ft 0kts
21-Mar-20 20:56 36.081618 -115.158224 88 2188ft 15kts
21-Mar-20 20:57 36.081029 -115.152741 103 2188ft 16kts
21-Mar-20 20:57 36.081316 -115.148852 53 2188ft 10kts
21-Mar-20 20:58 36.081680 -115.147938 63 2187ft 0kts
21-Mar-20 20:59 36.081680 -115.147938 63 2187ft 0kts
21-Mar-20 21:00 36.081680 -115.147938 63 2187ft 0kts
21-Mar-20 21:01 36.081680 -115.147938 63 2187ft 0kts
21-Mar-20 21:02 36.081680 -115.147938 63 2187ft 0kts
21-Mar-20 21:03 36.081680 -115.147938 63 2187ft 0kts
21-Mar-20 21:04 36.081680 -115.147938 63 2187ft 0kts
21-Mar-20 21:05 36.081680 -115.147938 63 2187ft 0kts
21-Mar-20 21:06 36.081680 -115.147938 63 2187ft 0kts
21-Mar-20 21:07 36.081680 -115.147938 63 2187ft 0kts

Navigation Log

Ident Type
Flight plan parsing failed, navigation log unavailable